createdAt,value
2019-04-20T00:00:51.021Z,11.10
2019-04-20T00:01:58.180Z,11.10
2019-04-20T00:03:01.359Z,11.10
2019-04-20T00:04:09.939Z,11.00
2019-04-20T00:05:13.423Z,11.10
2019-04-20T00:06:19.498Z,11.10
2019-04-20T00:07:30.920Z,11.00
2019-04-20T00:08:35.984Z,11.00
2019-04-20T00:09:40.101Z,11.00
2019-04-20T00:10:54.295Z,11.00
2019-04-20T00:12:03.024Z,11.00
2019-04-20T00:13:13.680Z,10.90
2019-04-20T00:14:10.926Z,10.90
2019-04-20T00:15:13.114Z,10.90
2019-04-20T00:16:18.940Z,10.90
2019-04-20T00:17:25.505Z,10.90
2019-04-20T00:18:36.776Z,10.90
2019-04-20T00:19:44.108Z,10.80
2019-04-20T00:20:57.560Z,10.80
2019-04-20T00:22:08.017Z,10.80
2019-04-20T00:23:24.955Z,10.80
2019-04-20T00:24:33.487Z,10.70
2019-04-20T00:26:05.669Z,10.70
2019-04-20T00:27:19.605Z,10.70
2019-04-20T00:28:24.129Z,10.70
2019-04-20T00:29:30.926Z,10.70
2019-04-20T00:30:40.326Z,10.70
2019-04-20T00:31:42.993Z,10.70
2019-04-20T00:32:47.846Z,10.60
2019-04-20T00:33:52.750Z,10.60
2019-04-20T00:34:50.561Z,10.60
2019-04-20T00:35:56.957Z,10.60
2019-04-20T00:37:02.328Z,10.60
2019-04-20T00:38:07.811Z,10.50
2019-04-20T00:39:16.537Z,10.50
2019-04-20T00:40:21.500Z,10.50
2019-04-20T00:41:27.694Z,10.50
2019-04-20T00:42:39.134Z,10.50
2019-04-20T00:43:41.893Z,10.50
2019-04-20T00:45:00.158Z,10.50
2019-04-20T00:46:04.834Z,10.40
2019-04-20T00:47:13.347Z,10.40
2019-04-20T00:48:19.799Z,10.40
2019-04-20T00:49:26.840Z,10.30
2019-04-20T00:50:34.231Z,10.30
2019-04-20T00:51:48.138Z,10.30
2019-04-20T00:52:51.798Z,10.30
2019-04-20T00:53:44.976Z,10.20
2019-04-20T00:54:47.413Z,10.20
2019-04-20T00:55:52.986Z,10.20
2019-04-20T00:57:10.479Z,10.10
2019-04-20T00:58:14.755Z,10.10
2019-04-20T00:59:25.135Z,10.10
2019-04-20T01:00:37.121Z,10.00
2019-04-20T01:01:47.849Z,10.00
2019-04-20T01:02:45.401Z,10.00
2019-04-20T01:03:49.452Z,10.00
2019-04-20T01:05:04.081Z,9.90
2019-04-20T01:06:26.935Z,9.80
2019-04-20T01:07:53.505Z,9.70
2019-04-20T01:08:59.224Z,9.60
2019-04-20T01:10:08.993Z,9.60
2019-04-20T01:11:16.761Z,9.60
2019-04-20T01:12:26.045Z,9.50
2019-04-20T01:13:28.800Z,9.50
2019-04-20T01:14:43.653Z,9.50
2019-04-20T01:15:51.537Z,9.40
2019-04-20T01:16:54.910Z,9.40
2019-04-20T01:17:55.298Z,9.40
2019-04-20T01:19:00.362Z,9.40
2019-04-20T01:20:05.967Z,9.40
2019-04-20T01:21:16.469Z,9.40
2019-04-20T01:22:20.571Z,9.40
2019-04-20T01:23:34.638Z,9.40
2019-04-20T01:24:38.272Z,9.40
2019-04-20T01:25:43.448Z,9.40
2019-04-20T01:26:50.621Z,9.30
2019-04-20T01:28:07.765Z,9.30
2019-04-20T01:29:12.191Z,9.30
2019-04-20T01:30:17.430Z,9.30
2019-04-20T01:31:26.681Z,9.30
2019-04-20T01:32:33.454Z,9.30
2019-04-20T01:33:40.071Z,9.30
2019-04-20T01:34:47.157Z,9.30
2019-04-20T01:35:56.896Z,9.30
2019-04-20T01:37:04.432Z,9.30
2019-04-20T01:38:11.331Z,9.30
2019-04-20T01:39:14.666Z,9.30
2019-04-20T01:40:12.960Z,9.30
2019-04-20T01:41:18.314Z,9.20
2019-04-20T01:42:27.529Z,9.20
2019-04-20T01:43:33.237Z,9.30
2019-04-20T01:44:42.405Z,9.20
2019-04-20T01:45:46.032Z,9.10
2019-04-20T01:46:56.858Z,9.10
2019-04-20T01:48:01.779Z,9.10
2019-04-20T01:49:11.508Z,9.10
2019-04-20T01:50:21.001Z,9.10
2019-04-20T01:51:27.171Z,9.10
2019-04-20T01:52:44.018Z,9.20
2019-04-20T01:54:02.171Z,9.10
2019-04-20T01:55:24.838Z,9.10
2019-04-20T01:56:30.134Z,9.10
2019-04-20T01:57:54.549Z,9.10
2019-04-20T01:59:30.832Z,9.10
2019-04-20T02:00:36.944Z,9.10
2019-04-20T02:02:13.189Z,9.00
2019-04-20T02:03:38.513Z,9.00
2019-04-20T02:04:55.338Z,9.00
2019-04-20T02:06:07.450Z,9.00
2019-04-20T02:07:09.151Z,9.00
2019-04-20T02:08:19.633Z,9.00
2019-04-20T02:09:25.625Z,9.00
2019-04-20T02:10:39.544Z,9.00
2019-04-20T02:11:39.599Z,9.00
2019-04-20T02:12:43.999Z,9.00
2019-04-20T02:13:56.234Z,9.00
2019-04-20T02:14:59.461Z,9.00
2019-04-20T02:16:11.359Z,9.00
2019-04-20T02:17:19.995Z,8.90
2019-04-20T02:18:28.642Z,8.90
2019-04-20T02:19:34.710Z,8.80
2019-04-20T02:20:53.261Z,8.80
2019-04-20T02:21:54.168Z,8.70
2019-04-20T02:22:59.218Z,8.70
2019-04-20T02:23:54.694Z,8.70
2019-04-20T02:24:57.072Z,8.70
2019-04-20T02:26:02.979Z,8.70
2019-04-20T02:27:08.247Z,8.70
2019-04-20T02:28:27.415Z,8.70
2019-04-20T02:29:39.961Z,8.70
2019-04-20T02:31:11.054Z,8.70
2019-04-20T02:32:11.678Z,8.70
2019-04-20T02:33:27.392Z,8.70
2019-04-20T02:34:37.721Z,8.70
2019-04-20T02:36:10.304Z,8.70
2019-04-20T02:37:45.102Z,8.70
2019-04-20T02:40:13.093Z,8.70
2019-04-20T02:41:18.151Z,8.70
2019-04-20T02:42:38.652Z,8.80
2019-04-20T02:43:39.042Z,8.70
2019-04-20T02:44:40.428Z,8.80
2019-04-20T02:49:10.244Z,8.70
2019-04-20T02:50:34.114Z,8.70
2019-04-20T02:51:25.349Z,8.80
2019-04-20T02:52:40.443Z,8.80
2019-04-20T02:53:44.904Z,8.80
2019-04-20T02:55:58.229Z,8.70
2019-04-20T02:58:00.621Z,8.70
2019-04-20T03:00:25.373Z,8.60
2019-04-20T03:01:33.487Z,8.60
2019-04-20T03:02:34.598Z,8.60
2019-04-20T03:03:35.384Z,8.60
2019-04-20T03:04:42.469Z,8.60
2019-04-20T03:06:00.154Z,8.50
2019-04-20T03:07:05.242Z,8.50
2019-04-20T03:08:13.718Z,8.50
2019-04-20T03:09:25.621Z,8.50
2019-04-20T03:10:37.215Z,8.50
2019-04-20T03:11:49.995Z,8.50
2019-04-20T03:12:46.205Z,8.50
2019-04-20T03:13:50.152Z,8.40
2019-04-20T03:14:52.808Z,8.40
2019-04-20T03:16:08.638Z,8.40
2019-04-20T03:17:15.554Z,8.40
2019-04-20T03:18:23.555Z,8.40
2019-04-20T03:19:25.037Z,8.40
2019-04-20T03:20:36.895Z,8.40
2019-04-20T03:21:45.048Z,8.40
2019-04-20T03:23:11.708Z,8.40
2019-04-20T03:24:06.438Z,8.30
2019-04-20T03:25:06.286Z,8.30
2019-04-20T03:26:18.986Z,8.30
2019-04-20T03:27:33.076Z,8.30
2019-04-20T03:29:01.764Z,8.20
2019-04-20T03:32:13.999Z,8.20
2019-04-20T03:34:25.495Z,8.10
2019-04-20T03:35:12.113Z,8.10
2019-04-20T03:36:29.762Z,8.10
2019-04-20T03:37:27.537Z,8.10
2019-04-20T03:38:33.368Z,8.10
2019-04-20T03:39:31.289Z,8.10
2019-04-20T03:40:40.270Z,8.10
2019-04-20T03:41:39.446Z,8.10
2019-04-20T03:42:38.249Z,8.00
2019-04-20T03:43:43.534Z,8.00
2019-04-20T03:44:56.457Z,8.00
2019-04-20T03:46:03.127Z,8.00
2019-04-20T03:47:08.820Z,8.00
2019-04-20T03:48:29.477Z,8.00
2019-04-20T03:49:42.341Z,8.00
2019-04-20T03:50:46.330Z,8.00
2019-04-20T03:51:53.722Z,7.90
2019-04-20T03:53:08.873Z,7.90
2019-04-20T03:54:22.306Z,7.90
2019-04-20T03:55:44.770Z,7.90
2019-04-20T03:57:21.402Z,7.90
2019-04-20T03:58:29.190Z,7.90
2019-04-20T03:59:57.668Z,7.90
2019-04-20T04:01:31.445Z,7.80
2019-04-20T04:03:00.411Z,7.80
2019-04-20T04:03:53.286Z,7.80
2019-04-20T04:04:59.403Z,7.80
2019-04-20T04:06:07.731Z,7.80
2019-04-20T04:07:08.104Z,7.80
2019-04-20T04:08:17.086Z,7.80
2019-04-20T04:09:30.434Z,7.80
2019-04-20T04:10:35.309Z,7.80
2019-04-20T04:11:44.617Z,7.80
2019-04-20T04:13:09.552Z,7.80
2019-04-20T04:14:15.768Z,7.80
2019-04-20T04:15:20.998Z,7.80
2019-04-20T04:16:32.897Z,7.80
2019-04-20T04:17:37.191Z,7.80
2019-04-20T04:18:44.746Z,7.80
2019-04-20T04:19:56.790Z,7.80
2019-04-20T04:21:01.422Z,7.80
2019-04-20T04:22:13.846Z,7.80
2019-04-20T04:23:24.626Z,7.80
2019-04-20T04:24:26.006Z,7.80
2019-04-20T04:25:29.769Z,7.80
2019-04-20T04:26:42.836Z,7.80
2019-04-20T04:27:54.893Z,7.80
2019-04-20T04:28:53.225Z,7.80
2019-04-20T04:30:01.755Z,7.80
2019-04-20T04:31:13.373Z,7.80
2019-04-20T04:32:37.217Z,7.80
2019-04-20T04:33:50.421Z,7.80
2019-04-20T04:34:34.704Z,7.90
2019-04-20T04:35:34.901Z,7.90
2019-04-20T04:36:49.936Z,7.90
2019-04-20T04:37:53.551Z,7.90
2019-04-20T04:39:07.540Z,8.00
2019-04-20T04:40:16.215Z,8.00
2019-04-20T04:41:21.029Z,8.00
2019-04-20T04:42:24.902Z,8.00
2019-04-20T04:43:26.740Z,8.10
2019-04-20T04:44:30.301Z,8.10
2019-04-20T04:45:26.523Z,8.10
2019-04-20T04:46:33.867Z,8.10
2019-04-20T04:47:36.795Z,8.10
2019-04-20T04:48:45.731Z,8.20
2019-04-20T04:49:59.184Z,8.20
2019-04-20T04:51:03.437Z,8.20
2019-04-20T04:52:10.576Z,8.30
2019-04-20T04:53:27.182Z,8.30
2019-04-20T04:54:28.778Z,8.40
2019-04-20T04:55:35.285Z,8.50
2019-04-20T04:56:33.610Z,8.70
2019-04-20T04:57:39.009Z,9.10
2019-04-20T04:58:44.616Z,9.60
2019-04-20T04:59:50.834Z,10.10
2019-04-20T05:01:01.390Z,10.80
2019-04-20T05:02:03.454Z,11.50
2019-04-20T05:03:28.522Z,12.10
2019-04-20T05:04:51.091Z,12.70
2019-04-20T05:06:16.170Z,13.40
2019-04-20T05:07:17.002Z,14.10
2019-04-20T05:08:21.293Z,14.90
2019-04-20T05:09:17.647Z,15.60
2019-04-20T05:10:22.793Z,16.20
2019-04-20T05:11:28.038Z,16.80
2019-04-20T05:12:35.045Z,17.30
2019-04-20T05:13:49.084Z,17.90
2019-04-20T05:14:58.972Z,18.50
2019-04-20T05:16:07.534Z,18.80
2019-04-20T05:17:15.351Z,19.20
2019-04-20T05:18:35.756Z,19.70
2019-04-20T05:19:37.061Z,20.20
2019-04-20T05:20:47.499Z,20.90
2019-04-20T05:22:14.712Z,21.20
2019-04-20T05:23:26.942Z,21.60
2019-04-20T05:24:48.167Z,22.10
2019-04-20T05:26:25.844Z,22.60
2019-04-20T05:27:40.503Z,23.20
2019-04-20T05:28:38.047Z,23.90
2019-04-20T05:29:36.576Z,24.50
2019-04-20T05:30:46.785Z,24.90
2019-04-20T05:31:55.567Z,25.40
2019-04-20T05:33:03.163Z,25.80
2019-04-20T05:34:26.088Z,26.20
2019-04-20T05:35:38.113Z,26.50
2019-04-20T05:36:39.820Z,26.80
2019-04-20T05:37:51.340Z,27.10
2019-04-20T05:39:10.276Z,27.50
2019-04-20T05:39:59.011Z,27.70
2019-04-20T05:41:04.637Z,28.00
2019-04-20T05:42:09.292Z,28.30
2019-04-20T05:43:20.636Z,28.50
2019-04-20T05:44:41.323Z,28.50
2019-04-20T05:45:38.846Z,28.50
2019-04-20T05:46:53.610Z,28.10
2019-04-20T05:47:56.049Z,28.20
2019-04-20T05:49:11.816Z,28.40
2019-04-20T05:50:06.157Z,28.80
2019-04-20T05:51:25.631Z,29.20
2019-04-20T05:52:37.124Z,29.60
2019-04-20T05:53:34.138Z,29.90
2019-04-20T05:54:39.174Z,30.30
2019-04-20T05:55:43.190Z,29.80
2019-04-20T05:56:50.164Z,29.60
2019-04-20T05:58:06.145Z,30.00
2019-04-20T05:59:09.825Z,30.40
2019-04-20T06:00:14.633Z,30.70
2019-04-20T06:01:20.113Z,31.00
2019-04-20T06:02:29.419Z,31.20
2019-04-20T06:03:32.425Z,31.60
2019-04-20T06:04:54.500Z,32.00
2019-04-20T06:05:52.602Z,31.70
2019-04-20T06:06:55.413Z,31.50
2019-04-20T06:07:59.197Z,30.70
2019-04-20T06:09:12.971Z,31.40
2019-04-20T06:10:16.838Z,32.10
2019-04-20T06:11:24.522Z,32.70
2019-04-20T06:12:31.753Z,33.10
2019-04-20T06:13:32.753Z,33.40
2019-04-20T06:15:09.233Z,33.60
2019-04-20T06:16:46.896Z,33.20
2019-04-20T06:18:02.737Z,31.90
2019-04-20T06:19:20.132Z,32.60
2019-04-20T06:20:21.794Z,33.50
2019-04-20T06:21:31.262Z,33.40
2019-04-20T06:22:41.643Z,33.20
2019-04-20T06:24:15.236Z,33.60
2019-04-20T06:27:41.082Z,35.60
2019-04-20T06:28:35.325Z,35.60
2019-04-20T06:29:46.038Z,35.20
2019-04-20T06:30:48.109Z,35.70
2019-04-20T06:32:06.640Z,35.30
2019-04-20T06:34:05.563Z,34.70
2019-04-20T06:34:48.973Z,35.00
2019-04-20T06:37:02.028Z,34.80
2019-04-20T06:38:27.897Z,34.70
2019-04-20T06:39:20.405Z,34.00
2019-04-20T06:40:47.323Z,34.20
2019-04-20T06:41:54.298Z,34.00
2019-04-20T06:42:41.085Z,34.90
2019-04-20T06:43:55.759Z,35.30
2019-04-20T06:44:57.795Z,35.10
2019-04-20T06:46:10.315Z,35.50
2019-04-20T06:47:16.455Z,36.00
2019-04-20T06:48:29.402Z,35.50
2019-04-20T06:49:31.450Z,34.30
2019-04-20T06:50:29.206Z,33.80
2019-04-20T06:51:47.527Z,33.60
2019-04-20T06:53:41.199Z,34.30
2019-04-20T06:55:05.191Z,34.30
2019-04-20T06:56:27.640Z,34.50
2019-04-20T06:57:31.142Z,35.90
2019-04-20T06:58:51.720Z,36.70
2019-04-20T06:59:43.343Z,37.30
2019-04-20T07:00:46.478Z,37.90
2019-04-20T07:02:02.991Z,38.50
2019-04-20T07:02:58.920Z,38.90
2019-04-20T07:04:27.759Z,38.50
2019-04-20T07:05:19.003Z,37.40
2019-04-20T07:06:43.556Z,37.50
2019-04-20T07:07:32.490Z,37.10
2019-04-20T07:08:51.085Z,37.20
2019-04-20T07:11:07.205Z,37.00
2019-04-20T07:11:58.071Z,38.00
2019-04-20T07:13:00.270Z,38.80
2019-04-20T07:13:59.597Z,39.20
2019-04-20T07:15:17.440Z,39.70
2019-04-20T07:16:28.878Z,40.00
2019-04-20T07:19:09.464Z,40.20
2019-04-20T07:20:45.998Z,39.70
2019-04-20T07:22:25.049Z,40.30
2019-04-20T07:23:29.251Z,41.20
2019-04-20T07:24:38.467Z,42.00
2019-04-20T07:25:40.389Z,42.60
2019-04-20T07:26:46.369Z,42.40
2019-04-20T07:27:50.842Z,41.80
2019-04-20T07:29:05.445Z,42.10
2019-04-20T07:30:04.112Z,42.40
2019-04-20T07:31:06.737Z,43.10
2019-04-20T07:32:07.870Z,43.80
2019-04-20T07:33:23.862Z,44.50
2019-04-20T07:34:28.037Z,45.00
2019-04-20T07:35:35.850Z,44.00
2019-04-20T07:36:50.252Z,43.90
2019-04-20T07:38:10.290Z,44.30
2019-04-20T07:39:04.252Z,44.70
2019-04-20T07:40:05.954Z,45.00
2019-04-20T07:41:17.436Z,45.60
2019-04-20T07:42:23.037Z,44.90
2019-04-20T07:43:28.407Z,44.20
2019-04-20T07:44:47.253Z,42.10
2019-04-20T07:45:33.168Z,43.00
2019-04-20T07:46:55.128Z,43.40
2019-04-20T07:48:11.375Z,43.90
2019-04-20T07:49:01.420Z,43.70
2019-04-20T07:50:03.718Z,43.20
2019-04-20T07:51:01.163Z,42.20
2019-04-20T07:51:59.488Z,40.90
2019-04-20T07:53:20.389Z,39.70
2019-04-20T07:54:35.486Z,38.90
2019-04-20T07:55:44.721Z,37.80
2019-04-20T07:56:47.786Z,38.00
2019-04-20T07:57:47.273Z,38.50
2019-04-20T07:58:47.935Z,38.40
2019-04-20T08:00:05.484Z,39.00
2019-04-20T08:01:23.560Z,39.20
2019-04-20T08:02:51.424Z,39.30
2019-04-20T08:03:55.565Z,40.30
2019-04-20T08:05:15.509Z,40.80
2019-04-20T08:06:25.058Z,41.50
2019-04-20T08:07:36.136Z,42.10
2019-04-20T08:08:50.472Z,42.40
2019-04-20T08:09:46.530Z,42.80
2019-04-20T08:10:58.644Z,42.80
2019-04-20T08:12:18.267Z,42.50
2019-04-20T08:13:33.187Z,41.40
2019-04-20T08:14:33.576Z,42.00
2019-04-20T08:17:05.359Z,42.00
2019-04-20T08:17:56.546Z,41.60
2019-04-20T08:18:59.692Z,42.30
2019-04-20T08:20:04.272Z,42.70
2019-04-20T08:21:13.366Z,42.20
2019-04-20T08:22:23.135Z,42.60
2019-04-20T08:23:44.278Z,42.60
2019-04-20T08:24:27.715Z,42.60
2019-04-20T08:25:31.566Z,40.40
2019-04-20T08:26:31.070Z,39.10
2019-04-20T08:27:50.831Z,38.30
2019-04-20T08:29:19.042Z,38.90
2019-04-20T08:30:33.616Z,38.80
2019-04-20T08:31:55.922Z,39.00
2019-04-20T08:32:58.549Z,39.30
2019-04-20T08:34:21.420Z,39.80
2019-04-20T08:35:29.039Z,39.00
2019-04-20T08:36:33.560Z,39.80
2019-04-20T08:37:38.021Z,38.60
2019-04-20T08:39:06.852Z,36.90
2019-04-20T08:39:57.435Z,35.50
2019-04-20T08:40:53.938Z,35.90
2019-04-20T08:42:06.345Z,36.70
2019-04-20T08:43:24.001Z,37.40
2019-04-20T08:44:42.719Z,38.10
2019-04-20T08:45:32.912Z,38.40
2019-04-20T08:46:34.844Z,37.20
2019-04-20T08:47:44.828Z,37.90
2019-04-20T08:48:46.928Z,37.80
2019-04-20T08:50:17.179Z,38.00
2019-04-20T08:51:19.504Z,38.20
2019-04-20T08:52:47.132Z,39.30
2019-04-20T08:53:33.437Z,39.50
2019-04-20T08:54:34.638Z,38.50
2019-04-20T08:55:41.302Z,36.80
2019-04-20T08:56:42.428Z,34.70
2019-04-20T08:57:39.859Z,34.90
2019-04-20T08:58:46.110Z,35.60
2019-04-20T08:59:52.667Z,36.60
2019-04-20T09:01:03.128Z,35.50
2019-04-20T09:02:11.728Z,35.10
2019-04-20T09:03:21.957Z,34.70
2019-04-20T09:04:32.994Z,35.40
2019-04-20T09:05:40.015Z,36.00
2019-04-20T09:06:50.719Z,37.10
2019-04-20T09:07:54.224Z,37.40
2019-04-20T09:08:57.833Z,38.20
2019-04-20T09:10:18.746Z,38.80
2019-04-20T09:11:16.732Z,39.20
2019-04-20T09:12:30.525Z,37.90
2019-04-20T09:13:24.515Z,36.80
2019-04-20T09:14:23.548Z,35.80
2019-04-20T09:15:29.932Z,35.20
2019-04-20T09:16:44.266Z,35.40
2019-04-20T09:18:09.246Z,35.60
2019-04-20T09:19:13.301Z,35.30
2019-04-20T09:20:29.123Z,36.20
2019-04-20T09:21:35.592Z,35.60
2019-04-20T09:22:49.304Z,35.50
2019-04-20T09:24:10.528Z,34.60
2019-04-20T09:25:24.954Z,34.10
2019-04-20T09:26:15.023Z,33.70
2019-04-20T09:27:18.436Z,33.50
2019-04-20T09:28:54.337Z,33.90
2019-04-20T09:30:05.883Z,34.10
2019-04-20T09:31:25.602Z,34.40
2019-04-20T09:32:36.049Z,33.90
2019-04-20T09:34:16.216Z,34.60
2019-04-20T09:35:24.851Z,35.60
2019-04-20T09:36:47.190Z,36.20
2019-04-20T09:38:00.251Z,37.50
2019-04-20T09:39:14.124Z,37.50
2019-04-20T09:40:32.200Z,38.00
2019-04-20T09:41:46.829Z,38.50
2019-04-20T09:42:52.153Z,37.50
2019-04-20T09:43:58.336Z,37.70
2019-04-20T09:45:07.536Z,39.50
2019-04-20T09:46:12.033Z,40.10
2019-04-20T09:47:23.815Z,40.50
2019-04-20T09:48:33.696Z,41.20
2019-04-20T09:49:43.876Z,41.80
2019-04-20T09:50:58.406Z,41.90
2019-04-20T09:52:01.705Z,42.10
2019-04-20T09:53:05.865Z,42.50
2019-04-20T09:54:17.570Z,42.70
2019-04-20T09:55:18.410Z,42.70
2019-04-20T09:56:30.377Z,42.80
2019-04-20T09:57:42.510Z,43.20
2019-04-20T09:58:45.145Z,43.60
2019-04-20T09:59:52.839Z,44.00
2019-04-20T10:00:59.398Z,44.40
2019-04-20T10:02:02.170Z,44.40
2019-04-20T10:02:58.239Z,44.40
2019-04-20T10:04:03.541Z,44.60
2019-04-20T10:05:09.413Z,44.80
2019-04-20T10:06:17.971Z,44.30
2019-04-20T10:07:24.026Z,42.90
2019-04-20T10:08:29.267Z,43.00
2019-04-20T10:09:38.123Z,43.20
2019-04-20T10:10:43.793Z,42.40
2019-04-20T10:11:49.313Z,41.50
2019-04-20T10:12:54.557Z,40.30
2019-04-20T10:13:59.663Z,39.60
2019-04-20T10:15:13.415Z,39.50
2019-04-20T10:16:11.876Z,39.50
2019-04-20T10:17:18.043Z,38.20
2019-04-20T10:18:23.767Z,37.30
2019-04-20T10:19:33.880Z,37.00
2019-04-20T10:20:38.901Z,37.10
2019-04-20T10:21:43.683Z,36.60
2019-04-20T10:22:48.873Z,36.30
2019-04-20T10:23:54.606Z,35.40
2019-04-20T10:25:00.216Z,35.10
2019-04-20T10:26:06.675Z,35.30
2019-04-20T10:27:12.606Z,35.80
2019-04-20T10:28:19.367Z,36.10
2019-04-20T10:29:25.702Z,36.60
2019-04-20T10:30:30.906Z,36.90
2019-04-20T10:31:42.572Z,37.40
2019-04-20T10:32:45.693Z,37.70
2019-04-20T10:33:49.561Z,37.40
2019-04-20T10:34:54.868Z,37.90
2019-04-20T10:36:01.411Z,37.50
2019-04-20T10:37:15.587Z,37.90
2019-04-20T10:38:25.400Z,37.90
2019-04-20T10:39:30.868Z,38.00
2019-04-20T10:40:47.342Z,37.90
2019-04-20T10:41:48.956Z,36.90
2019-04-20T10:42:50.132Z,36.80
2019-04-20T10:43:56.610Z,36.30
2019-04-20T10:45:02.902Z,35.70
2019-04-20T10:46:09.025Z,36.20
2019-04-20T10:47:14.724Z,36.90
2019-04-20T10:48:19.833Z,37.60
2019-04-20T10:49:24.982Z,37.90
2019-04-20T10:50:31.239Z,37.60
2019-04-20T10:51:37.795Z,37.20
2019-04-20T10:52:43.688Z,37.00
2019-04-20T10:53:50.538Z,36.50
2019-04-20T10:54:56.561Z,35.50
2019-04-20T10:56:03.337Z,34.90
2019-04-20T10:57:09.756Z,33.70
2019-04-20T10:58:15.591Z,32.20
2019-04-20T10:59:21.483Z,31.30
2019-04-20T11:00:41.915Z,31.10
2019-04-20T11:01:47.566Z,30.40
2019-04-20T11:02:52.681Z,29.60
2019-04-20T11:03:58.756Z,28.70
2019-04-20T11:05:04.503Z,28.60
2019-04-20T11:06:10.921Z,28.40
2019-04-20T11:07:16.603Z,28.10
2019-04-20T11:08:22.403Z,27.90
2019-04-20T11:09:28.937Z,27.70
2019-04-20T11:10:48.268Z,27.50
2019-04-20T11:11:40.920Z,27.10
2019-04-20T11:12:46.383Z,26.90
2019-04-20T11:13:51.592Z,26.50
2019-04-20T11:14:56.641Z,26.10
2019-04-20T11:16:02.201Z,26.10
2019-04-20T11:17:08.690Z,25.90
2019-04-20T11:18:15.494Z,25.40
2019-04-20T11:19:21.202Z,25.00
2019-04-20T11:20:27.578Z,24.90
2019-04-20T11:21:34.359Z,24.80
2019-04-20T11:22:40.169Z,24.90
2019-04-20T11:23:46.488Z,24.90
2019-04-20T11:24:52.387Z,24.90
2019-04-20T11:25:58.081Z,24.80
2019-04-20T11:27:04.433Z,24.80
2019-04-20T11:28:10.230Z,24.70
2019-04-20T11:29:16.098Z,24.60
2019-04-20T11:30:22.484Z,24.40
2019-04-20T11:31:37.321Z,24.30
2019-04-20T11:32:35.936Z,24.20
2019-04-20T11:33:42.424Z,24.10
2019-04-20T11:34:48.002Z,24.00
2019-04-20T11:35:54.956Z,24.00
2019-04-20T11:37:01.384Z,24.00
2019-04-20T11:38:10.791Z,23.70
2019-04-20T11:39:14.775Z,23.60
2019-04-20T11:40:21.142Z,23.50
2019-04-20T11:41:30.376Z,23.60
2019-04-20T11:42:33.233Z,23.70
2019-04-20T11:43:39.762Z,23.70
2019-04-20T11:44:45.007Z,23.70
2019-04-20T11:45:51.087Z,23.80
2019-04-20T11:46:56.689Z,23.90
2019-04-20T11:48:03.313Z,23.80
2019-04-20T11:49:09.813Z,23.80
2019-04-20T11:50:15.604Z,23.90
2019-04-20T11:51:21.585Z,23.90
2019-04-20T11:52:28.111Z,23.90
2019-04-20T11:53:34.209Z,24.00
2019-04-20T11:54:40.044Z,24.10
2019-04-20T11:55:46.528Z,24.10
2019-04-20T11:56:53.187Z,24.10
2019-04-20T11:57:58.423Z,24.10
2019-04-20T11:59:03.659Z,24.10
2019-04-20T12:00:10.684Z,24.20
2019-04-20T12:01:37.118Z,24.20
2019-04-20T12:03:10.912Z,24.10
2019-04-20T12:04:24.857Z,24.10
2019-04-20T12:05:27.854Z,24.20
2019-04-20T12:06:25.238Z,24.10
2019-04-20T12:07:38.169Z,24.00
2019-04-20T12:08:44.293Z,24.00
2019-04-20T12:09:51.441Z,24.00
2019-04-20T12:11:00.415Z,24.10
2019-04-20T12:12:14.213Z,24.10
2019-04-20T12:13:13.348Z,24.10
2019-04-20T12:14:17.136Z,24.10
2019-04-20T12:15:22.497Z,24.20
2019-04-20T12:16:27.867Z,24.10
2019-04-20T12:17:33.481Z,24.20
2019-04-20T12:18:38.619Z,24.20
2019-04-20T12:19:43.903Z,24.20
2019-04-20T12:20:50.364Z,24.10
2019-04-20T12:21:55.895Z,24.10
2019-04-20T12:23:02.183Z,24.10
2019-04-20T12:24:07.321Z,24.10
2019-04-20T12:25:14.252Z,24.00
2019-04-20T12:26:20.525Z,24.00
2019-04-20T12:27:26.891Z,23.90
2019-04-20T12:28:33.598Z,23.90
2019-04-20T12:29:38.833Z,23.90
2019-04-20T12:30:44.006Z,24.00
2019-04-20T12:31:51.138Z,24.00
2019-04-20T12:32:59.825Z,24.00
2019-04-20T12:34:02.822Z,24.20
2019-04-20T12:35:09.915Z,24.30
2019-04-20T12:36:16.235Z,24.40
2019-04-20T12:37:21.719Z,24.50
2019-04-20T12:38:28.895Z,24.50
2019-04-20T12:39:35.264Z,24.50
2019-04-20T12:40:41.919Z,24.50
2019-04-20T12:41:52.909Z,24.50
2019-04-20T12:42:55.037Z,24.60
2019-04-20T12:44:01.624Z,24.50
2019-04-20T12:45:08.074Z,24.50
2019-04-20T12:46:16.603Z,24.50
2019-04-20T12:47:21.367Z,24.50
2019-04-20T12:48:26.696Z,24.50
2019-04-20T12:49:31.801Z,24.50
2019-04-20T12:50:37.444Z,24.50
2019-04-20T12:51:50.596Z,24.60
2019-04-20T12:52:50.335Z,24.60
2019-04-20T12:53:56.381Z,24.60
2019-04-20T12:55:04.297Z,24.60
2019-04-20T12:56:08.621Z,24.70
2019-04-20T12:57:14.522Z,24.80
2019-04-20T12:58:20.876Z,24.80
2019-04-20T12:59:27.420Z,24.90
2019-04-20T13:00:45.755Z,24.90
2019-04-20T13:01:51.390Z,24.90
2019-04-20T13:02:56.552Z,24.90
2019-04-20T13:04:04.508Z,24.90
2019-04-20T13:05:09.418Z,24.90
2019-04-20T13:06:16.184Z,24.90
2019-04-20T13:07:22.755Z,24.90
2019-04-20T13:08:36.267Z,24.90
2019-04-20T13:09:41.777Z,24.80
2019-04-20T13:10:54.891Z,24.60
2019-04-20T13:12:30.297Z,24.60
2019-04-20T13:13:54.598Z,24.60
2019-04-20T13:15:29.185Z,24.70
2019-04-20T13:16:36.497Z,24.70
2019-04-20T13:17:42.223Z,24.70
2019-04-20T13:18:50.989Z,24.70
2019-04-20T13:19:57.383Z,24.60
2019-04-20T13:21:03.244Z,24.70
2019-04-20T13:22:08.511Z,24.70
2019-04-20T13:23:14.930Z,24.60
2019-04-20T13:24:20.942Z,24.70
2019-04-20T13:25:26.287Z,24.60
2019-04-20T13:26:31.556Z,24.70
2019-04-20T13:27:38.885Z,24.80
2019-04-20T13:28:44.059Z,24.80
2019-04-20T13:29:51.341Z,24.80
2019-04-20T13:30:55.970Z,24.80
2019-04-20T13:32:02.022Z,24.70
2019-04-20T13:33:08.301Z,24.70
2019-04-20T13:34:13.416Z,24.80
2019-04-20T13:35:18.518Z,24.80
2019-04-20T13:36:24.127Z,24.80
2019-04-20T13:37:29.488Z,24.70
2019-04-20T13:38:36.183Z,24.80
2019-04-20T13:39:42.666Z,24.80
2019-04-20T13:40:48.172Z,24.80
2019-04-20T13:42:03.446Z,24.80
2019-04-20T13:43:00.041Z,24.80
2019-04-20T13:44:06.465Z,24.80
2019-04-20T13:45:12.900Z,24.80
2019-04-20T13:46:18.799Z,24.80
2019-04-20T13:47:25.023Z,24.80
2019-04-20T13:48:31.030Z,24.80
2019-04-20T13:49:36.797Z,24.70
2019-04-20T13:50:42.301Z,24.80
2019-04-20T13:51:48.644Z,24.80
2019-04-20T13:52:53.997Z,24.80
2019-04-20T13:53:59.421Z,24.80
2019-04-20T13:55:06.447Z,24.70
2019-04-20T13:56:14.019Z,24.80
2019-04-20T13:57:23.929Z,24.90
2019-04-20T13:58:52.172Z,24.90
2019-04-20T13:59:58.157Z,25.00
2019-04-20T14:01:20.988Z,24.90
2019-04-20T14:02:35.043Z,25.00
2019-04-20T14:03:40.751Z,25.10
2019-04-20T14:04:58.953Z,25.00
2019-04-20T14:06:04.678Z,25.00
2019-04-20T14:07:12.516Z,25.00
2019-04-20T14:08:19.515Z,25.00
2019-04-20T14:09:25.587Z,25.00
2019-04-20T14:10:31.264Z,25.00
2019-04-20T14:11:37.163Z,25.00
2019-04-20T14:12:53.348Z,25.00
2019-04-20T14:13:54.616Z,24.90
2019-04-20T14:14:57.168Z,24.90
2019-04-20T14:16:03.093Z,25.00
2019-04-20T14:17:08.314Z,24.90
2019-04-20T14:18:15.188Z,24.90
2019-04-20T14:19:21.324Z,25.00
2019-04-20T14:20:27.117Z,24.90
2019-04-20T14:21:32.246Z,24.90
2019-04-20T14:22:37.320Z,24.90
2019-04-20T14:23:43.223Z,24.80
2019-04-20T14:24:48.971Z,24.90
2019-04-20T14:25:54.667Z,24.90
2019-04-20T14:27:01.073Z,24.90
2019-04-20T14:28:06.971Z,24.90
2019-04-20T14:29:12.717Z,25.00
2019-04-20T14:30:19.281Z,25.00
2019-04-20T14:31:25.783Z,25.00
2019-04-20T14:32:30.963Z,24.90
2019-04-20T14:33:36.990Z,24.90
2019-04-20T14:34:42.963Z,24.90
2019-04-20T14:35:48.389Z,24.90
2019-04-20T14:36:54.780Z,24.90
2019-04-20T14:38:01.592Z,24.80
2019-04-20T14:39:10.125Z,24.70
2019-04-20T14:40:16.656Z,24.70
2019-04-20T14:41:22.338Z,24.80
2019-04-20T14:42:36.989Z,24.70
2019-04-20T14:43:36.082Z,24.70
2019-04-20T14:44:41.715Z,24.80
2019-04-20T14:45:47.090Z,24.80
2019-04-20T14:46:53.727Z,24.80
2019-04-20T14:47:59.554Z,24.80
2019-04-20T14:49:04.984Z,24.80
2019-04-20T14:50:13.730Z,24.70
2019-04-20T14:51:19.498Z,24.70
2019-04-20T14:52:25.784Z,24.60
2019-04-20T14:53:31.586Z,24.60
2019-04-20T14:54:37.283Z,24.60
2019-04-20T14:55:43.693Z,24.60
2019-04-20T14:56:49.549Z,24.70
2019-04-20T14:57:57.383Z,24.60
2019-04-20T14:59:20.221Z,24.60
2019-04-20T15:00:45.675Z,24.60
2019-04-20T15:01:56.775Z,24.60
2019-04-20T15:03:21.825Z,24.70
2019-04-20T15:04:29.034Z,24.70
2019-04-20T15:05:34.993Z,24.70
2019-04-20T15:06:40.199Z,24.70
2019-04-20T15:07:46.752Z,24.80